createdAt,value
2022-08-31T00:00:28.432Z,18.08
2022-08-31T00:03:13.869Z,18.25
2022-08-31T00:05:43.419Z,18.31
2022-08-31T00:08:11.639Z,18.14
2022-08-31T00:10:41.511Z,18.06
2022-08-31T00:13:13.855Z,18.09
2022-08-31T00:15:43.051Z,18.11
2022-08-31T00:18:11.688Z,18.09
2022-08-31T00:20:39.711Z,18.21
2022-08-31T00:23:11.292Z,18.16
2022-08-31T00:25:41.432Z,18.21
2022-08-31T00:28:10.204Z,18.17
2022-08-31T00:30:38.492Z,18.09
2022-08-31T00:33:06.594Z,18.16
2022-08-31T00:35:36.717Z,18.07
2022-08-31T00:38:05.033Z,18.18
2022-08-31T00:40:38.159Z,18.27
2022-08-31T00:43:12.758Z,17.99
2022-08-31T00:45:40.699Z,18.24
2022-08-31T00:48:08.588Z,18.22
2022-08-31T00:50:36.436Z,18.14
2022-08-31T00:53:05.410Z,18.23
2022-08-31T00:55:38.077Z,18.18
2022-08-31T00:58:10.093Z,18.11
2022-08-31T01:00:38.452Z,18.09
2022-08-31T01:03:08.123Z,18.29
2022-08-31T01:05:37.504Z,18.37
2022-08-31T01:08:07.009Z,18.38
2022-08-31T01:10:40.093Z,18.44
2022-08-31T01:13:09.098Z,18.39
2022-08-31T01:15:38.792Z,18.40
2022-08-31T01:18:08.300Z,18.32
2022-08-31T01:20:49.161Z,18.29
2022-08-31T01:23:22.500Z,18.32
2022-08-31T01:25:52.604Z,18.35
2022-08-31T01:28:20.851Z,18.35
2022-08-31T01:31:00.260Z,18.19
2022-08-31T01:33:28.654Z,18.05
2022-08-31T01:35:57.214Z,18.14
2022-08-31T01:38:26.803Z,18.14
2022-08-31T01:40:57.702Z,18.09
2022-08-31T01:43:26.500Z,18.19
2022-08-31T01:45:54.494Z,18.15
2022-08-31T01:48:23.598Z,18.28
2022-08-31T01:50:51.384Z,18.29
2022-08-31T01:53:19.413Z,18.27
2022-08-31T01:55:48.788Z,18.31
2022-08-31T01:58:16.679Z,18.35
2022-08-31T02:00:45.537Z,18.19
2022-08-31T02:03:13.541Z,18.16
2022-08-31T02:05:42.012Z,18.01
2022-08-31T02:08:11.757Z,18.11
2022-08-31T02:10:39.751Z,18.05
2022-08-31T02:13:08.996Z,18.01
2022-08-31T02:15:38.595Z,18.10
2022-08-31T02:18:07.061Z,17.96
2022-08-31T02:20:35.420Z,18.13
2022-08-31T02:23:03.533Z,17.94
2022-08-31T02:25:31.868Z,18.10
2022-08-31T02:27:59.660Z,18.14
2022-08-31T02:30:29.266Z,18.03
2022-08-31T02:32:57.091Z,17.96
2022-08-31T02:35:25.281Z,17.97
2022-08-31T02:37:53.036Z,17.96
2022-08-31T02:40:20.946Z,17.87
2022-08-31T02:42:52.898Z,17.84
2022-08-31T02:45:22.322Z,17.92
2022-08-31T02:47:52.173Z,18.03
2022-08-31T02:50:20.055Z,18.04
2022-08-31T02:52:47.956Z,18.02
2022-08-31T02:55:16.142Z,17.99
2022-08-31T02:57:43.871Z,17.99
2022-08-31T03:00:13.449Z,18.05
2022-08-31T03:02:41.468Z,18.08
2022-08-31T03:05:11.692Z,17.90
2022-08-31T03:07:39.700Z,17.87
2022-08-31T03:10:11.510Z,17.93
2022-08-31T03:12:39.702Z,18.00
2022-08-31T03:15:09.416Z,18.01
2022-08-31T03:17:37.673Z,17.98
2022-08-31T03:20:07.238Z,17.91
2022-08-31T03:22:36.421Z,17.95
2022-08-31T03:25:06.052Z,17.85
2022-08-31T03:27:34.353Z,17.74
2022-08-31T03:30:02.149Z,17.85
2022-08-31T03:32:30.922Z,17.94
2022-08-31T03:35:01.291Z,17.89
2022-08-31T03:37:29.431Z,17.90
2022-08-31T03:39:58.991Z,17.95
2022-08-31T03:42:27.574Z,17.84
2022-08-31T03:44:56.537Z,17.72
2022-08-31T03:47:24.318Z,17.77
2022-08-31T03:49:56.346Z,17.75
2022-08-31T03:52:24.102Z,17.70
2022-08-31T03:54:51.828Z,17.79
2022-08-31T03:57:21.120Z,17.69
2022-08-31T03:59:48.928Z,17.73
2022-08-31T04:02:16.750Z,17.80
2022-08-31T04:04:44.519Z,17.65
2022-08-31T04:07:16.504Z,17.65
2022-08-31T04:09:45.118Z,17.32
2022-08-31T04:12:12.945Z,17.61
2022-08-31T04:14:42.326Z,17.68
2022-08-31T04:17:11.181Z,17.71
2022-08-31T04:19:41.061Z,17.84
2022-08-31T04:22:09.530Z,17.74
2022-08-31T04:24:37.491Z,17.59
2022-08-31T04:27:05.802Z,17.62
2022-08-31T04:29:33.619Z,17.76
2022-08-31T04:32:02.788Z,17.71
2022-08-31T04:34:30.546Z,17.80
2022-08-31T04:36:58.394Z,17.90
2022-08-31T04:39:26.158Z,17.60
2022-08-31T04:42:00.859Z,17.79
2022-08-31T04:44:28.725Z,17.93
2022-08-31T04:46:56.551Z,17.78
2022-08-31T04:49:25.706Z,17.71
2022-08-31T04:51:53.457Z,17.64
2022-08-31T04:54:21.341Z,17.60
2022-08-31T04:56:49.377Z,17.51
2022-08-31T04:59:18.946Z,17.57
2022-08-31T05:01:47.040Z,17.47
2022-08-31T05:04:17.023Z,17.67
2022-08-31T05:06:47.819Z,17.67
2022-08-31T05:09:19.017Z,17.61
2022-08-31T05:11:47.114Z,17.60
2022-08-31T05:14:14.946Z,17.65
2022-08-31T05:16:43.717Z,17.65
2022-08-31T05:19:11.788Z,17.51
2022-08-31T05:21:41.253Z,17.29
2022-08-31T05:24:12.562Z,16.89
2022-08-31T05:26:44.431Z,16.83
2022-08-31T05:29:15.290Z,16.80
2022-08-31T05:31:47.085Z,16.76
2022-08-31T05:34:17.822Z,16.84
2022-08-31T05:36:47.427Z,16.88
2022-08-31T05:39:16.931Z,16.70
2022-08-31T05:41:46.697Z,16.72
2022-08-31T05:44:15.386Z,16.73
2022-08-31T05:46:43.715Z,16.73
2022-08-31T05:49:11.838Z,16.77
2022-08-31T05:51:40.357Z,16.70
2022-08-31T05:54:10.781Z,16.78
2022-08-31T05:56:41.890Z,17.07
2022-08-31T05:59:10.597Z,16.83
2022-08-31T06:01:41.079Z,16.83
2022-08-31T06:04:10.428Z,16.95
2022-08-31T06:06:39.280Z,17.03
2022-08-31T06:09:08.613Z,16.97
2022-08-31T06:11:40.464Z,16.98
2022-08-31T06:14:10.902Z,16.93
2022-08-31T06:16:40.376Z,16.87
2022-08-31T06:19:08.685Z,16.92
2022-08-31T06:21:39.792Z,17.01
2022-08-31T06:24:18.452Z,17.00
2022-08-31T06:26:58.471Z,16.99
2022-08-31T06:29:31.601Z,16.96
2022-08-31T06:32:00.446Z,16.98
2022-08-31T06:34:29.474Z,17.05
2022-08-31T06:36:57.218Z,17.15
2022-08-31T06:39:25.322Z,17.16
2022-08-31T06:41:54.077Z,17.01
2022-08-31T06:44:22.595Z,17.04
2022-08-31T06:46:52.455Z,17.07
2022-08-31T06:49:20.929Z,16.92
2022-08-31T06:51:48.924Z,17.02
2022-08-31T06:54:29.463Z,17.15
2022-08-31T06:56:59.395Z,17.12
2022-08-31T06:59:29.135Z,17.16
2022-08-31T07:01:59.857Z,17.06
2022-08-31T07:04:28.726Z,17.13
2022-08-31T07:06:56.502Z,17.17
2022-08-31T07:09:25.085Z,17.17
2022-08-31T07:11:53.627Z,17.21
2022-08-31T07:14:24.843Z,17.12
2022-08-31T07:16:54.289Z,17.15
2022-08-31T07:19:24.409Z,17.01
2022-08-31T07:21:54.532Z,16.91
2022-08-31T07:24:24.333Z,16.90
2022-08-31T07:26:54.509Z,16.78
2022-08-31T07:29:23.910Z,16.79
2022-08-31T07:31:53.025Z,16.91
2022-08-31T07:34:25.670Z,16.95
2022-08-31T07:37:20.689Z,16.93
2022-08-31T07:40:07.815Z,16.91
2022-08-31T07:42:39.172Z,16.87
2022-08-31T07:45:11.648Z,16.89
2022-08-31T07:47:46.079Z,16.85
2022-08-31T07:50:15.067Z,16.72
2022-08-31T07:52:47.283Z,16.87
2022-08-31T07:55:17.943Z,16.94
2022-08-31T07:57:46.358Z,17.08
2022-08-31T08:00:21.045Z,16.96
2022-08-31T08:02:52.842Z,16.82
2022-08-31T08:05:27.416Z,16.77
2022-08-31T08:08:09.323Z,16.90
2022-08-31T08:10:52.314Z,16.73
2022-08-31T08:13:21.095Z,16.89
2022-08-31T08:15:50.774Z,17.01
2022-08-31T08:18:20.761Z,17.11
2022-08-31T08:20:49.438Z,17.01
2022-08-31T08:23:28.218Z,17.05
2022-08-31T08:26:01.601Z,16.93
2022-08-31T08:28:45.970Z,17.11
2022-08-31T08:31:19.158Z,16.97
2022-08-31T08:33:47.418Z,16.99
2022-08-31T08:36:18.151Z,17.07
2022-08-31T08:38:48.925Z,16.96
2022-08-31T08:41:20.020Z,16.93
2022-08-31T08:43:52.435Z,16.91
2022-08-31T08:46:36.844Z,16.86
2022-08-31T08:49:15.652Z,17.12
2022-08-31T08:51:44.768Z,17.12
2022-08-31T08:54:19.528Z,17.01
2022-08-31T08:56:49.194Z,17.08
2022-08-31T08:59:20.060Z,17.15
2022-08-31T09:01:53.028Z,17.17
2022-08-31T09:04:35.369Z,17.34
2022-08-31T09:07:22.911Z,17.17
2022-08-31T09:10:02.256Z,17.33
2022-08-31T09:12:42.962Z,17.18
2022-08-31T09:15:49.408Z,17.39
2022-08-31T09:18:33.606Z,17.38
2022-08-31T09:21:10.072Z,17.31
2022-08-31T09:23:49.209Z,17.47
2022-08-31T09:26:20.050Z,17.50
2022-08-31T09:28:49.365Z,17.18
2022-08-31T09:31:34.778Z,17.28
2022-08-31T09:34:03.902Z,17.31
2022-08-31T09:36:41.114Z,17.39
2022-08-31T09:39:24.950Z,17.28
2022-08-31T09:42:03.376Z,17.37
2022-08-31T09:44:35.249Z,17.53
2022-08-31T09:47:06.797Z,17.52
2022-08-31T09:49:37.744Z,17.71
2022-08-31T09:52:21.867Z,17.69
2022-08-31T09:55:13.762Z,17.67
2022-08-31T09:57:54.112Z,17.93
2022-08-31T10:00:38.904Z,18.03
2022-08-31T10:03:19.767Z,18.12
2022-08-31T10:05:50.551Z,18.33
2022-08-31T10:08:42.290Z,18.43
2022-08-31T10:11:15.745Z,18.60
2022-08-31T10:13:57.193Z,18.64
2022-08-31T10:16:30.495Z,19.04
2022-08-31T10:19:04.170Z,19.06
2022-08-31T10:21:43.954Z,18.72
2022-08-31T10:24:21.774Z,18.27
2022-08-31T10:26:57.092Z,18.73
2022-08-31T10:29:33.541Z,18.89
2022-08-31T10:32:06.097Z,18.96
2022-08-31T10:34:58.306Z,18.74
2022-08-31T10:37:36.725Z,18.69
2022-08-31T10:40:09.862Z,18.64
2022-08-31T10:42:42.517Z,18.73
2022-08-31T10:45:18.794Z,18.70
2022-08-31T10:47:49.539Z,18.40
2022-08-31T10:50:28.568Z,18.40
2022-08-31T10:53:09.123Z,18.45
2022-08-31T10:55:48.644Z,18.49
2022-08-31T10:58:25.828Z,18.37
2022-08-31T11:00:59.453Z,18.68
2022-08-31T11:03:43.472Z,18.94
2022-08-31T11:06:25.242Z,19.20
2022-08-31T11:09:03.020Z,19.48
2022-08-31T11:11:43.393Z,19.70
2022-08-31T11:14:49.872Z,19.76
2022-08-31T11:17:40.132Z,19.89
2022-08-31T11:20:42.979Z,19.66
2022-08-31T11:23:29.859Z,20.66
2022-08-31T11:26:46.152Z,20.74
2022-08-31T11:29:29.247Z,20.52
2022-08-31T11:32:01.876Z,20.31
2022-08-31T11:34:47.138Z,20.32
2022-08-31T11:37:55.769Z,20.19
2022-08-31T11:41:10.912Z,19.96
2022-08-31T11:43:51.963Z,20.23
2022-08-31T11:46:43.123Z,19.91
2022-08-31T11:49:11.917Z,20.01
2022-08-31T11:51:48.152Z,20.01
2022-08-31T11:54:42.019Z,20.08
2022-08-31T11:57:15.666Z,20.49
2022-08-31T11:59:45.988Z,20.91
2022-08-31T12:02:44.748Z,20.85
2022-08-31T12:05:13.546Z,20.38
2022-08-31T12:07:46.319Z,20.60
2022-08-31T12:10:46.442Z,20.90
2022-08-31T12:13:42.341Z,20.90
2022-08-31T12:16:22.809Z,21.05
2022-08-31T12:19:08.256Z,20.86
2022-08-31T12:22:02.738Z,20.88
2022-08-31T12:24:40.654Z,21.35
2022-08-31T12:27:27.527Z,20.44
2022-08-31T12:30:20.108Z,20.88
2022-08-31T12:32:59.171Z,22.36
2022-08-31T12:35:30.150Z,24.26
2022-08-31T12:38:00.383Z,23.79
2022-08-31T12:40:31.267Z,23.46
2022-08-31T12:43:06.853Z,22.70
2022-08-31T12:46:07.221Z,22.81
2022-08-31T12:48:46.970Z,23.29
2022-08-31T12:51:24.146Z,25.37
2022-08-31T12:54:09.003Z,24.61
2022-08-31T12:56:45.441Z,25.80
2022-08-31T12:59:45.665Z,25.57
2022-08-31T13:02:16.574Z,25.74
2022-08-31T13:04:46.319Z,26.96
2022-08-31T13:07:16.229Z,25.63
2022-08-31T13:09:45.855Z,25.39
2022-08-31T13:12:23.896Z,26.49
2022-08-31T13:14:51.624Z,26.38
2022-08-31T13:17:21.914Z,26.85
2022-08-31T13:19:52.678Z,27.14
2022-08-31T13:22:28.851Z,26.72
2022-08-31T13:25:10.577Z,25.38
2022-08-31T13:27:48.235Z,24.42
2022-08-31T13:30:19.686Z,23.50
2022-08-31T13:32:51.395Z,24.16
2022-08-31T13:35:20.077Z,24.92
2022-08-31T13:38:03.870Z,24.77
2022-08-31T13:40:35.505Z,23.87
2022-08-31T13:43:07.501Z,23.48
2022-08-31T13:45:40.404Z,24.05
2022-08-31T13:48:14.922Z,23.16
2022-08-31T13:50:52.312Z,22.93
2022-08-31T13:53:39.644Z,22.96
2022-08-31T13:56:44.164Z,21.94
2022-08-31T13:59:26.559Z,21.72
2022-08-31T14:01:56.706Z,21.86
2022-08-31T14:05:00.690Z,21.64
2022-08-31T14:07:32.570Z,21.92
2022-08-31T14:10:01.565Z,22.79
2022-08-31T14:12:36.266Z,23.25
2022-08-31T14:15:18.533Z,23.52
2022-08-31T14:20:53.407Z,23.84
2022-08-31T14:23:33.037Z,23.98
2022-08-31T14:26:02.925Z,24.34
2022-08-31T14:28:41.781Z,23.49
2022-08-31T14:31:22.897Z,23.70
2022-08-31T14:33:55.981Z,23.78
2022-08-31T14:36:26.375Z,22.64
2022-08-31T14:38:55.168Z,22.44
2022-08-31T14:41:30.992Z,22.65
2022-08-31T14:44:06.858Z,22.66
2022-08-31T14:46:38.682Z,22.11
2022-08-31T14:49:07.256Z,22.26
2022-08-31T14:51:39.109Z,22.46
2022-08-31T14:54:07.395Z,22.86
2022-08-31T14:56:39.099Z,22.44
2022-08-31T14:59:16.150Z,22.58
2022-08-31T15:01:46.220Z,21.90
2022-08-31T15:04:16.456Z,22.08
2022-08-31T15:06:49.219Z,22.03
2022-08-31T15:09:17.109Z,21.96
2022-08-31T15:11:45.149Z,21.43
2022-08-31T15:14:13.914Z,21.67
2022-08-31T15:16:43.602Z,21.16
2022-08-31T15:19:14.180Z,21.49
2022-08-31T15:21:52.241Z,21.79
2022-08-31T15:24:23.342Z,21.87
2022-08-31T15:26:53.323Z,21.45
2022-08-31T15:29:24.883Z,21.68
2022-08-31T15:31:55.052Z,21.91
2022-08-31T15:34:26.554Z,21.49
2022-08-31T15:36:56.180Z,21.68
2022-08-31T15:39:24.772Z,21.82
2022-08-31T15:41:52.511Z,21.39
2022-08-31T15:44:20.747Z,21.28
2022-08-31T15:47:06.333Z,21.73
2022-08-31T15:49:37.518Z,21.62
2022-08-31T15:52:07.004Z,21.95
2022-08-31T15:54:35.752Z,21.94
2022-08-31T15:57:06.053Z,22.01
2022-08-31T15:59:34.687Z,22.04
2022-08-31T16:02:03.036Z,21.95
2022-08-31T16:04:31.673Z,21.43
2022-08-31T16:07:01.651Z,21.69
2022-08-31T16:09:29.398Z,21.67
2022-08-31T16:11:57.112Z,21.43
2022-08-31T16:14:24.943Z,21.31
2022-08-31T16:16:52.811Z,21.39
2022-08-31T16:19:34.633Z,21.62
2022-08-31T16:22:06.101Z,21.35
2022-08-31T16:24:37.055Z,21.21
2022-08-31T16:27:07.924Z,21.24
2022-08-31T16:29:37.134Z,21.29
2022-08-31T16:32:06.569Z,21.13
2022-08-31T16:34:35.464Z,21.01
2022-08-31T16:37:07.265Z,21.18
2022-08-31T16:39:37.089Z,21.25
2022-08-31T16:42:05.829Z,21.22
2022-08-31T16:44:36.651Z,21.16
2022-08-31T16:47:06.669Z,21.07
2022-08-31T16:49:34.089Z,21.00
2022-08-31T16:52:03.368Z,20.87
2022-08-31T16:54:33.974Z,20.92
2022-08-31T16:57:02.390Z,20.75
2022-08-31T16:59:30.681Z,20.69
2022-08-31T17:01:58.822Z,20.59
2022-08-31T17:04:51.070Z,20.53
2022-08-31T17:07:16.409Z,20.53
2022-08-31T17:09:46.142Z,20.57
2022-08-31T17:12:17.044Z,20.48
2022-08-31T17:14:48.210Z,20.49
2022-08-31T17:17:18.202Z,20.35
2022-08-31T17:19:46.944Z,20.25
2022-08-31T17:22:23.323Z,20.36
2022-08-31T17:24:57.764Z,20.32
2022-08-31T17:27:26.829Z,20.36
2022-08-31T17:29:56.439Z,20.24
2022-08-31T17:32:27.605Z,20.13
2022-08-31T17:34:56.546Z,20.09
2022-08-31T17:37:28.367Z,20.07
2022-08-31T17:39:57.547Z,20.04
2022-08-31T17:42:28.076Z,19.84
2022-08-31T17:44:56.334Z,19.86
2022-08-31T17:47:26.504Z,19.62
2022-08-31T17:49:55.055Z,19.53
2022-08-31T17:52:23.797Z,19.53
2022-08-31T17:54:52.325Z,19.45
2022-08-31T17:57:24.824Z,19.54
2022-08-31T17:59:54.877Z,19.37
2022-08-31T18:02:27.543Z,19.38
2022-08-31T18:04:55.492Z,19.35
2022-08-31T18:07:23.271Z,19.20
2022-08-31T18:09:51.956Z,19.08
2022-08-31T18:12:22.832Z,19.26
2022-08-31T18:14:51.031Z,19.27
2022-08-31T18:17:22.146Z,19.27
2022-08-31T18:19:49.974Z,19.13
2022-08-31T18:22:18.351Z,19.02
2022-08-31T18:24:46.410Z,18.97
2022-08-31T18:27:16.116Z,18.95
2022-08-31T18:29:46.296Z,18.92
2022-08-31T18:32:15.277Z,18.94
2022-08-31T18:34:47.082Z,18.98
2022-08-31T18:37:16.195Z,18.82
2022-08-31T18:40:04.276Z,18.84
2022-08-31T18:42:50.645Z,18.86
2022-08-31T18:45:20.340Z,18.71
2022-08-31T18:48:20.898Z,18.74
2022-08-31T18:50:42.424Z,18.77
2022-08-31T18:53:11.037Z,18.83
2022-08-31T18:55:43.200Z,18.86
2022-08-31T18:58:11.109Z,18.87
2022-08-31T19:00:40.670Z,18.89
2022-08-31T19:03:08.831Z,18.93
2022-08-31T19:05:39.875Z,18.91
2022-08-31T19:08:08.124Z,18.88
2022-08-31T19:10:35.842Z,18.80
2022-08-31T19:13:07.697Z,18.80
2022-08-31T19:15:41.063Z,18.74
2022-08-31T19:18:09.166Z,18.76
2022-08-31T19:20:36.904Z,18.80
2022-08-31T19:23:04.693Z,18.72
2022-08-31T19:25:32.897Z,18.77
2022-08-31T19:28:01.616Z,18.71
2022-08-31T19:30:30.186Z,18.70
2022-08-31T19:32:59.340Z,18.62
2022-08-31T19:35:27.480Z,18.58
2022-08-31T19:37:56.664Z,18.46
2022-08-31T19:40:43.020Z,18.34
2022-08-31T19:46:15.935Z,17.93
2022-08-31T19:48:46.085Z,17.96
2022-08-31T19:51:15.525Z,17.86
2022-08-31T19:53:44.859Z,17.77
2022-08-31T19:56:14.670Z,17.76
2022-08-31T19:58:42.804Z,17.71
2022-08-31T20:01:11.305Z,17.67
2022-08-31T20:03:40.793Z,17.40
2022-08-31T20:06:13.335Z,17.30
2022-08-31T20:08:42.097Z,17.28
2022-08-31T20:11:11.057Z,17.17
2022-08-31T20:13:41.141Z,17.14
2022-08-31T20:16:09.808Z,17.18
2022-08-31T20:18:38.261Z,17.17
2022-08-31T20:21:17.303Z,17.18
2022-08-31T20:23:48.826Z,17.15
2022-08-31T20:26:18.901Z,17.02
2022-08-31T20:28:46.770Z,17.04
2022-08-31T20:31:16.603Z,17.03
2022-08-31T20:33:45.498Z,17.08
2022-08-31T20:36:18.939Z,17.06
2022-08-31T20:38:49.084Z,17.07
2022-08-31T20:41:17.284Z,17.05
2022-08-31T20:43:45.138Z,16.98
2022-08-31T20:46:34.480Z,16.94
2022-08-31T20:49:19.711Z,16.91
2022-08-31T20:51:47.581Z,17.01
2022-08-31T20:54:17.369Z,16.89
2022-08-31T20:56:45.675Z,16.80
2022-08-31T20:59:13.526Z,16.79
2022-08-31T21:01:41.678Z,16.83
2022-08-31T21:04:09.617Z,16.81
2022-08-31T21:06:37.912Z,16.81
2022-08-31T21:09:06.673Z,16.74
2022-08-31T21:11:40.581Z,16.68
2022-08-31T21:14:08.938Z,16.63
2022-08-31T21:16:36.766Z,16.53
2022-08-31T21:19:07.424Z,16.52
2022-08-31T21:21:35.316Z,16.54
2022-08-31T21:24:03.389Z,16.50
2022-08-31T21:26:31.142Z,16.43
2022-08-31T21:29:00.702Z,16.46
2022-08-31T21:31:29.513Z,16.37
2022-08-31T21:33:59.403Z,16.42
2022-08-31T21:36:28.458Z,16.47
2022-08-31T21:38:57.928Z,16.39
2022-08-31T21:41:28.271Z,16.37
2022-08-31T21:43:58.193Z,16.32
2022-08-31T21:46:29.318Z,16.30
2022-08-31T21:48:59.311Z,16.37
2022-08-31T21:51:29.534Z,16.41
2022-08-31T21:53:59.622Z,16.51
2022-08-31T21:56:29.910Z,16.36
2022-08-31T21:58:58.502Z,16.36
2022-08-31T22:01:29.914Z,16.31
2022-08-31T22:03:59.423Z,16.15
2022-08-31T22:06:31.511Z,16.20
2022-08-31T22:09:00.470Z,16.26
2022-08-31T22:11:30.005Z,16.24
2022-08-31T22:13:59.792Z,16.31
2022-08-31T22:16:29.225Z,16.45
2022-08-31T22:19:01.225Z,16.41
2022-08-31T22:21:32.246Z,16.42
2022-08-31T22:24:03.155Z,16.39
2022-08-31T22:26:34.905Z,16.40
2022-08-31T22:29:02.709Z,16.40
2022-08-31T22:31:32.896Z,16.47
2022-08-31T22:34:00.749Z,16.63
2022-08-31T22:36:32.371Z,16.47
2022-08-31T22:39:03.117Z,16.44
2022-08-31T22:41:31.759Z,16.46
2022-08-31T22:44:00.435Z,16.30
2022-08-31T22:46:28.443Z,16.32
2022-08-31T22:48:58.531Z,16.22
2022-08-31T22:51:26.259Z,16.29
2022-08-31T22:53:54.273Z,16.32
2022-08-31T22:56:25.894Z,16.42
2022-08-31T22:58:55.204Z,16.42
2022-08-31T23:01:25.674Z,16.34
2022-08-31T23:03:55.148Z,16.28
2022-08-31T23:06:26.776Z,16.21
2022-08-31T23:08:56.491Z,16.24
2022-08-31T23:11:26.235Z,16.18
2022-08-31T23:13:56.673Z,16.30
2022-08-31T23:16:27.014Z,16.41
2022-08-31T23:18:57.647Z,16.46
2022-08-31T23:21:29.510Z,16.36
2022-08-31T23:23:57.960Z,16.24
2022-08-31T23:26:27.520Z,16.11
2022-08-31T23:28:55.764Z,16.03
2022-08-31T23:31:24.322Z,15.88
2022-08-31T23:33:53.495Z,15.94
2022-08-31T23:36:26.162Z,15.82
2022-08-31T23:38:56.693Z,15.79
2022-08-31T23:41:26.562Z,15.65
2022-08-31T23:43:56.738Z,15.70
2022-08-31T23:46:25.087Z,15.68
2022-08-31T23:48:54.216Z,15.77
2022-08-31T23:51:24.458Z,15.70
2022-08-31T23:53:55.251Z,15.69
2022-08-31T23:56:32.648Z,15.75
2022-08-31T23:59:02.010Z,15.70
